sensor_id;sensor_type;location;lat;lon;timestamp;P1;durP1;ratioP1;P2;durP2;ratioP2
41115;SDS011;26861;51.824;4.682;2023-03-01T00:00:52;1.65;;;1.30;;
41115;SDS011;26861;51.824;4.682;2023-03-01T00:03:17;1.40;;;1.30;;
41115;SDS011;26861;51.824;4.682;2023-03-01T00:05:44;1.63;;;1.10;;
41115;SDS011;26861;51.824;4.682;2023-03-01T00:08:10;1.30;;;1.00;;
41115;SDS011;26861;51.824;4.682;2023-03-01T00:10:36;1.58;;;1.20;;
41115;SDS011;26861;51.824;4.682;2023-03-01T00:13:02;1.10;;;1.00;;
41115;SDS011;26861;51.824;4.682;2023-03-01T00:15:30;1.35;;;1.10;;
41115;SDS011;26861;51.824;4.682;2023-03-01T00:17:56;1.55;;;1.20;;
41115;SDS011;26861;51.824;4.682;2023-03-01T00:20:22;1.30;;;1.13;;
41115;SDS011;26861;51.824;4.682;2023-03-01T00:22:48;1.40;;;1.00;;
41115;SDS011;26861;51.824;4.682;2023-03-01T00:25:13;1.50;;;1.13;;
41115;SDS011;26861;51.824;4.682;2023-03-01T00:27:39;1.20;;;1.10;;
41115;SDS011;26861;51.824;4.682;2023-03-01T00:30:04;1.45;;;1.20;;
41115;SDS011;26861;51.824;4.682;2023-03-01T00:32:31;1.58;;;1.08;;
41115;SDS011;26861;51.824;4.682;2023-03-01T00:34:56;1.10;;;0.80;;
41115;SDS011;26861;51.824;4.682;2023-03-01T00:37:22;2.38;;;1.10;;
41115;SDS011;26861;51.824;4.682;2023-03-01T00:39:48;1.55;;;0.98;;
41115;SDS011;26861;51.824;4.682;2023-03-01T00:42:15;1.50;;;1.10;;
41115;SDS011;26861;51.824;4.682;2023-03-01T00:44:41;1.10;;;1.00;;
41115;SDS011;26861;51.824;4.682;2023-03-01T00:47:07;1.10;;;1.00;;
41115;SDS011;26861;51.824;4.682;2023-03-01T00:49:32;1.70;;;1.20;;
41115;SDS011;26861;51.824;4.682;2023-03-01T00:51:58;1.65;;;1.13;;
41115;SDS011;26861;51.824;4.682;2023-03-01T00:54:23;1.20;;;1.10;;
41115;SDS011;26861;51.824;4.682;2023-03-01T00:56:49;2.10;;;1.00;;
41115;SDS011;26861;51.824;4.682;2023-03-01T00:59:15;1.20;;;1.02;;
41115;SDS011;26861;51.824;4.682;2023-03-01T01:01:40;1.55;;;1.00;;
41115;SDS011;26861;51.824;4.682;2023-03-01T01:04:07;0.98;;;0.90;;
41115;SDS011;26861;51.824;4.682;2023-03-01T01:06:36;2.03;;;1.20;;
41115;SDS011;26861;51.824;4.682;2023-03-01T01:09:05;3.33;;;1.10;;
41115;SDS011;26861;51.824;4.682;2023-03-01T01:11:32;1.48;;;1.00;;
41115;SDS011;26861;51.824;4.682;2023-03-01T01:14:00;1.88;;;1.02;;
41115;SDS011;26861;51.824;4.682;2023-03-01T01:16:27;1.55;;;1.00;;
41115;SDS011;26861;51.824;4.682;2023-03-01T01:18:53;1.48;;;0.80;;
41115;SDS011;26861;51.824;4.682;2023-03-01T01:21:21;1.88;;;0.90;;
41115;SDS011;26861;51.824;4.682;2023-03-01T01:23:49;1.33;;;1.00;;
41115;SDS011;26861;51.824;4.682;2023-03-01T01:28:45;1.42;;;1.00;;
41115;SDS011;26861;51.824;4.682;2023-03-01T01:31:11;1.42;;;1.10;;
41115;SDS011;26861;51.824;4.682;2023-03-01T01:33:38;1.65;;;1.10;;
41115;SDS011;26861;51.824;4.682;2023-03-01T01:36:04;1.02;;;0.75;;
41115;SDS011;26861;51.824;4.682;2023-03-01T01:38:31;0.90;;;0.70;;
41115;SDS011;26861;51.824;4.682;2023-03-01T01:40:57;1.17;;;0.98;;
41115;SDS011;26861;51.824;4.682;2023-03-01T01:43:25;1.30;;;0.95;;
41115;SDS011;26861;51.824;4.682;2023-03-01T01:45:54;1.23;;;1.10;;
41115;SDS011;26861;51.824;4.682;2023-03-01T01:48:31;1.52;;;1.10;;
41115;SDS011;26861;51.824;4.682;2023-03-01T01:51:13;1.15;;;1.05;;
41115;SDS011;26861;51.824;4.682;2023-03-01T01:53:43;1.33;;;1.10;;
41115;SDS011;26861;51.824;4.682;2023-03-01T01:56:14;0.88;;;0.85;;
41115;SDS011;26861;51.824;4.682;2023-03-01T01:58:42;1.17;;;0.85;;
41115;SDS011;26861;51.824;4.682;2023-03-01T02:01:08;1.52;;;1.00;;
41115;SDS011;26861;51.824;4.682;2023-03-01T02:03:35;0.88;;;0.82;;
41115;SDS011;26861;51.824;4.682;2023-03-01T02:06:10;0.93;;;0.80;;
41115;SDS011;26861;51.824;4.682;2023-03-01T02:08:46;0.70;;;0.70;;
41115;SDS011;26861;51.824;4.682;2023-03-01T02:11:14;1.20;;;1.02;;
41115;SDS011;26861;51.824;4.682;2023-03-01T02:13:40;0.98;;;0.88;;
41115;SDS011;26861;51.824;4.682;2023-03-01T02:16:11;1.77;;;1.02;;
41115;SDS011;26861;51.824;4.682;2023-03-01T02:18:39;1.02;;;0.80;;
41115;SDS011;26861;51.824;4.682;2023-03-01T02:21:15;1.40;;;0.90;;
41115;SDS011;26861;51.824;4.682;2023-03-01T02:23:41;0.77;;;0.70;;
41115;SDS011;26861;51.824;4.682;2023-03-01T02:26:11;2.28;;;1.20;;
41115;SDS011;26861;51.824;4.682;2023-03-01T02:28:45;1.52;;;1.08;;
41115;SDS011;26861;51.824;4.682;2023-03-01T02:31:14;0.85;;;0.85;;
41115;SDS011;26861;51.824;4.682;2023-03-01T02:34:00;1.10;;;1.00;;
41115;SDS011;26861;51.824;4.682;2023-03-01T02:36:30;1.88;;;1.08;;
41115;SDS011;26861;51.824;4.682;2023-03-01T02:39:00;1.63;;;1.10;;
41115;SDS011;26861;51.824;4.682;2023-03-01T02:41:28;1.45;;;0.95;;
41115;SDS011;26861;51.824;4.682;2023-03-01T02:43:56;0.90;;;0.90;;
41115;SDS011;26861;51.824;4.682;2023-03-01T02:46:24;0.82;;;0.80;;
41115;SDS011;26861;51.824;4.682;2023-03-01T02:48:52;1.10;;;0.90;;
41115;SDS011;26861;51.824;4.682;2023-03-01T02:56:28;1.63;;;0.95;;
41115;SDS011;26861;51.824;4.682;2023-03-01T02:58:54;1.67;;;0.80;;
41115;SDS011;26861;51.824;4.682;2023-03-01T03:01:25;2.05;;;0.93;;
41115;SDS011;26861;51.824;4.682;2023-03-01T03:04:09;0.93;;;0.80;;
41115;SDS011;26861;51.824;4.682;2023-03-01T03:06:42;1.92;;;1.13;;
41115;SDS011;26861;51.824;4.682;2023-03-01T03:09:11;1.58;;;1.17;;
41115;SDS011;26861;51.824;4.682;2023-03-01T03:11:38;0.95;;;0.80;;
41115;SDS011;26861;51.824;4.682;2023-03-01T03:14:08;1.27;;;1.10;;
41115;SDS011;26861;51.824;4.682;2023-03-01T03:16:39;1.70;;;1.20;;
41115;SDS011;26861;51.824;4.682;2023-03-01T03:19:06;1.02;;;0.93;;
41115;SDS011;26861;51.824;4.682;2023-03-01T03:21:32;0.80;;;0.80;;
41115;SDS011;26861;51.824;4.682;2023-03-01T03:23:58;1.13;;;0.70;;
41115;SDS011;26861;51.824;4.682;2023-03-01T03:26:24;1.42;;;0.85;;
41115;SDS011;26861;51.824;4.682;2023-03-01T03:28:49;1.05;;;0.80;;
41115;SDS011;26861;51.824;4.682;2023-03-01T03:31:15;1.48;;;1.00;;
41115;SDS011;26861;51.824;4.682;2023-03-01T03:33:41;1.10;;;0.93;;
41115;SDS011;26861;51.824;4.682;2023-03-01T03:36:06;0.77;;;0.77;;
41115;SDS011;26861;51.824;4.682;2023-03-01T03:38:38;1.38;;;0.75;;
41115;SDS011;26861;51.824;4.682;2023-03-01T03:41:05;1.15;;;0.80;;
41115;SDS011;26861;51.824;4.682;2023-03-01T03:43:33;0.50;;;0.50;;
41115;SDS011;26861;51.824;4.682;2023-03-01T03:45:59;1.38;;;0.90;;
41115;SDS011;26861;51.824;4.682;2023-03-01T03:48:32;1.17;;;0.82;;
41115;SDS011;26861;51.824;4.682;2023-03-01T03:50:59;1.67;;;0.80;;
41115;SDS011;26861;51.824;4.682;2023-03-01T03:53:27;1.15;;;0.90;;
41115;SDS011;26861;51.824;4.682;2023-03-01T03:55:54;0.70;;;0.70;;
41115;SDS011;26861;51.824;4.682;2023-03-01T03:58:21;1.83;;;0.80;;
41115;SDS011;26861;51.824;4.682;2023-03-01T04:00:49;1.10;;;0.80;;
41115;SDS011;26861;51.824;4.682;2023-03-01T04:03:16;1.02;;;0.90;;
41115;SDS011;26861;51.824;4.682;2023-03-01T04:05:44;0.80;;;0.70;;
41115;SDS011;26861;51.824;4.682;2023-03-01T04:08:10;2.25;;;1.00;;
41115;SDS011;26861;51.824;4.682;2023-03-01T04:10:37;1.05;;;0.90;;
41115;SDS011;26861;51.824;4.682;2023-03-01T04:13:05;1.00;;;0.80;;
41115;SDS011;26861;51.824;4.682;2023-03-01T04:15:33;1.00;;;0.90;;
41115;SDS011;26861;51.824;4.682;2023-03-01T04:17:59;1.23;;;0.85;;
41115;SDS011;26861;51.824;4.682;2023-03-01T04:20:29;0.73;;;0.68;;
41115;SDS011;26861;51.824;4.682;2023-03-01T04:23:00;0.82;;;0.73;;
41115;SDS011;26861;51.824;4.682;2023-03-01T04:28:23;2.22;;;0.90;;
41115;SDS011;26861;51.824;4.682;2023-03-01T04:31:01;0.88;;;0.88;;
41115;SDS011;26861;51.824;4.682;2023-03-01T04:33:42;1.42;;;0.90;;
41115;SDS011;26861;51.824;4.682;2023-03-01T04:36:10;1.10;;;1.00;;
41115;SDS011;26861;51.824;4.682;2023-03-01T04:38:37;0.95;;;0.93;;
41115;SDS011;26861;51.824;4.682;2023-03-01T04:41:06;0.70;;;0.70;;
41115;SDS011;26861;51.824;4.682;2023-03-01T04:43:34;2.00;;;1.00;;
41115;SDS011;26861;51.824;4.682;2023-03-01T04:46:01;0.88;;;0.80;;
41115;SDS011;26861;51.824;4.682;2023-03-01T04:48:28;1.17;;;1.00;;
41115;SDS011;26861;51.824;4.682;2023-03-01T04:50:54;0.98;;;0.95;;
41115;SDS011;26861;51.824;4.682;2023-03-01T04:53:20;1.55;;;0.80;;
41115;SDS011;26861;51.824;4.682;2023-03-01T04:55:45;1.33;;;1.02;;
41115;SDS011;26861;51.824;4.682;2023-03-01T04:58:11;0.73;;;0.68;;
41115;SDS011;26861;51.824;4.682;2023-03-01T05:00:36;1.02;;;0.80;;
41115;SDS011;26861;51.824;4.682;2023-03-01T05:03:02;1.35;;;1.23;;
41115;SDS011;26861;51.824;4.682;2023-03-01T05:05:30;0.88;;;0.80;;
41115;SDS011;26861;51.824;4.682;2023-03-01T05:08:01;1.20;;;1.10;;
41115;SDS011;26861;51.824;4.682;2023-03-01T05:10:30;1.75;;;1.00;;
41115;SDS011;26861;51.824;4.682;2023-03-01T05:12:58;0.93;;;0.63;;
41115;SDS011;26861;51.824;4.682;2023-03-01T05:15:24;1.70;;;0.90;;
41115;SDS011;26861;51.824;4.682;2023-03-01T05:17:54;1.17;;;0.90;;
41115;SDS011;26861;51.824;4.682;2023-03-01T05:20:23;1.23;;;1.00;;
41115;SDS011;26861;51.824;4.682;2023-03-01T05:22:54;0.98;;;0.98;;
41115;SDS011;26861;51.824;4.682;2023-03-01T05:25:21;1.08;;;0.90;;
41115;SDS011;26861;51.824;4.682;2023-03-01T05:27:47;1.98;;;1.00;;
41115;SDS011;26861;51.824;4.682;2023-03-01T05:30:13;0.80;;;0.60;;
41115;SDS011;26861;51.824;4.682;2023-03-01T05:32:47;0.73;;;0.70;;
41115;SDS011;26861;51.824;4.682;2023-03-01T05:35:21;1.40;;;0.90;;
41115;SDS011;26861;51.824;4.682;2023-03-01T05:37:47;0.90;;;0.90;;
41115;SDS011;26861;51.824;4.682;2023-03-01T05:40:21;1.20;;;1.10;;
41115;SDS011;26861;51.824;4.682;2023-03-01T05:42:49;1.20;;;1.10;;
41115;SDS011;26861;51.824;4.682;2023-03-01T05:45:20;1.38;;;1.00;;
41115;SDS011;26861;51.824;4.682;2023-03-01T05:47:47;0.80;;;0.80;;
41115;SDS011;26861;51.824;4.682;2023-03-01T05:50:18;1.13;;;0.90;;
41115;SDS011;26861;51.824;4.682;2023-03-01T05:52:52;1.20;;;1.05;;
41115;SDS011;26861;51.824;4.682;2023-03-01T05:55:26;0.80;;;0.80;;
41115;SDS011;26861;51.824;4.682;2023-03-01T05:57:52;1.00;;;0.90;;
41115;SDS011;26861;51.824;4.682;2023-03-01T06:00:18;1.23;;;1.10;;
41115;SDS011;26861;51.824;4.682;2023-03-01T06:02:47;0.98;;;0.98;;
41115;SDS011;26861;51.824;4.682;2023-03-01T06:05:14;1.02;;;0.70;;
41115;SDS011;26861;51.824;4.682;2023-03-01T06:07:40;1.20;;;1.10;;
41115;SDS011;26861;51.824;4.682;2023-03-01T06:10:06;1.65;;;1.02;;
41115;SDS011;26861;51.824;4.682;2023-03-01T06:12:36;2.17;;;0.98;;
41115;SDS011;26861;51.824;4.682;2023-03-01T06:17:31;1.00;;;0.95;;
41115;SDS011;26861;51.824;4.682;2023-03-01T06:20:02;0.73;;;0.73;;
41115;SDS011;26861;51.824;4.682;2023-03-01T06:22:33;0.93;;;0.93;;
41115;SDS011;26861;51.824;4.682;2023-03-01T06:24:59;1.45;;;1.35;;
41115;SDS011;26861;51.824;4.682;2023-03-01T06:27:24;1.48;;;1.38;;
41115;SDS011;26861;51.824;4.682;2023-03-01T06:29:50;1.67;;;1.58;;
41115;SDS011;26861;51.824;4.682;2023-03-01T06:32:16;2.75;;;1.42;;
41115;SDS011;26861;51.824;4.682;2023-03-01T06:34:41;3.25;;;1.40;;
41115;SDS011;26861;51.824;4.682;2023-03-01T06:37:07;1.33;;;1.23;;
41115;SDS011;26861;51.824;4.682;2023-03-01T06:39:33;1.95;;;1.38;;
41115;SDS011;26861;51.824;4.682;2023-03-01T06:41:59;1.88;;;1.70;;
41115;SDS011;26861;51.824;4.682;2023-03-01T06:44:25;2.60;;;1.40;;
41115;SDS011;26861;51.824;4.682;2023-03-01T06:46:50;1.77;;;1.23;;
41115;SDS011;26861;51.824;4.682;2023-03-01T06:49:16;3.10;;;1.50;;
41115;SDS011;26861;51.824;4.682;2023-03-01T06:51:42;3.03;;;1.50;;
41115;SDS011;26861;51.824;4.682;2023-03-01T06:54:09;2.30;;;1.52;;
41115;SDS011;26861;51.824;4.682;2023-03-01T06:56:35;1.50;;;1.40;;
41115;SDS011;26861;51.824;4.682;2023-03-01T06:59:01;1.85;;;1.75;;
41115;SDS011;26861;51.824;4.682;2023-03-01T07:01:27;2.13;;;1.60;;
41115;SDS011;26861;51.824;4.682;2023-03-01T07:03:54;1.45;;;1.30;;
41115;SDS011;26861;51.824;4.682;2023-03-01T07:06:20;1.48;;;1.25;;
41115;SDS011;26861;51.824;4.682;2023-03-01T07:08:47;2.65;;;1.80;;
41115;SDS011;26861;51.824;4.682;2023-03-01T07:11:13;1.50;;;1.40;;
41115;SDS011;26861;51.824;4.682;2023-03-01T07:13:40;2.15;;;1.70;;
41115;SDS011;26861;51.824;4.682;2023-03-01T07:16:06;2.55;;;1.75;;
41115;SDS011;26861;51.824;4.682;2023-03-01T07:18:32;2.15;;;1.70;;
41115;SDS011;26861;51.824;4.682;2023-03-01T07:21:03;2.97;;;1.90;;
41115;SDS011;26861;51.824;4.682;2023-03-01T07:23:31;2.70;;;1.80;;
41115;SDS011;26861;51.824;4.682;2023-03-01T07:25:57;1.60;;;1.50;;
41115;SDS011;26861;51.824;4.682;2023-03-01T07:28:23;2.28;;;1.80;;
41115;SDS011;26861;51.824;4.682;2023-03-01T07:30:49;2.55;;;1.85;;
41115;SDS011;26861;51.824;4.682;2023-03-01T07:33:16;1.92;;;1.73;;
41115;SDS011;26861;51.824;4.682;2023-03-01T07:35:42;2.00;;;1.83;;
41115;SDS011;26861;51.824;4.682;2023-03-01T07:38:08;2.15;;;1.52;;
41115;SDS011;26861;51.824;4.682;2023-03-01T07:40:34;1.75;;;1.60;;
41115;SDS011;26861;51.824;4.682;2023-03-01T07:43:01;1.70;;;1.60;;
41115;SDS011;26861;51.824;4.682;2023-03-01T07:45:27;1.85;;;1.58;;
41115;SDS011;26861;51.824;4.682;2023-03-01T07:47:54;2.20;;;2.00;;
41115;SDS011;26861;51.824;4.682;2023-03-01T07:50:21;1.83;;;1.73;;
41115;SDS011;26861;51.824;4.682;2023-03-01T07:52:48;1.92;;;1.83;;
41115;SDS011;26861;51.824;4.682;2023-03-01T07:55:15;2.05;;;1.85;;
41115;SDS011;26861;51.824;4.682;2023-03-01T07:57:42;3.30;;;1.98;;
41115;SDS011;26861;51.824;4.682;2023-03-01T08:00:09;2.20;;;1.77;;
41115;SDS011;26861;51.824;4.682;2023-03-01T08:02:36;4.55;;;2.60;;
41115;SDS011;26861;51.824;4.682;2023-03-01T08:05:02;5.38;;;2.70;;
41115;SDS011;26861;51.824;4.682;2023-03-01T08:07:29;4.28;;;2.40;;
41115;SDS011;26861;51.824;4.682;2023-03-01T08:09:54;5.43;;;2.13;;
41115;SDS011;26861;51.824;4.682;2023-03-01T08:12:20;4.28;;;2.97;;
41115;SDS011;26861;51.824;4.682;2023-03-01T08:14:45;5.40;;;2.00;;
41115;SDS011;26861;51.824;4.682;2023-03-01T08:17:13;2.58;;;2.17;;
41115;SDS011;26861;51.824;4.682;2023-03-01T08:19:39;9.88;;;2.50;;
41115;SDS011;26861;51.824;4.682;2023-03-01T08:22:05;2.17;;;1.98;;
41115;SDS011;26861;51.824;4.682;2023-03-01T08:24:31;3.30;;;2.00;;
41115;SDS011;26861;51.824;4.682;2023-03-01T08:26:57;4.15;;;2.15;;
41115;SDS011;26861;51.824;4.682;2023-03-01T08:29:22;3.92;;;2.05;;
41115;SDS011;26861;51.824;4.682;2023-03-01T08:31:49;3.17;;;2.22;;
41115;SDS011;26861;51.824;4.682;2023-03-01T08:34:16;3.17;;;1.65;;
41115;SDS011;26861;51.824;4.682;2023-03-01T08:36:43;3.53;;;2.00;;
41115;SDS011;26861;51.824;4.682;2023-03-01T08:39:11;4.60;;;1.50;;
41115;SDS011;26861;51.824;4.682;2023-03-01T08:41:38;4.28;;;1.70;;
41115;SDS011;26861;51.824;4.682;2023-03-01T08:44:05;2.58;;;1.63;;
41115;SDS011;26861;51.824;4.682;2023-03-01T08:46:32;3.28;;;1.83;;
41115;SDS011;26861;51.824;4.682;2023-03-01T08:49:02;3.35;;;1.40;;
41115;SDS011;26861;51.824;4.682;2023-03-01T08:51:32;1.60;;;1.45;;
41115;SDS011;26861;51.824;4.682;2023-03-01T08:54:02;2.10;;;1.55;;
41115;SDS011;26861;51.824;4.682;2023-03-01T08:56:32;1.95;;;1.20;;
41115;SDS011;26861;51.824;4.682;2023-03-01T08:58:58;2.60;;;1.55;;
41115;SDS011;26861;51.824;4.682;2023-03-01T09:01:24;2.03;;;1.33;;
41115;SDS011;26861;51.824;4.682;2023-03-01T09:03:50;2.28;;;1.35;;
41115;SDS011;26861;51.824;4.682;2023-03-01T09:06:16;1.65;;;1.05;;
41115;SDS011;26861;51.824;4.682;2023-03-01T09:08:43;3.75;;;2.17;;
41115;SDS011;26861;51.824;4.682;2023-03-01T09:11:11;3.35;;;1.77;;
41115;SDS011;26861;51.824;4.682;2023-03-01T09:13:38;2.50;;;1.38;;
41115;SDS011;26861;51.824;4.682;2023-03-01T09:16:05;1.83;;;1.10;;
41115;SDS011;26861;51.824;4.682;2023-03-01T09:18:32;1.92;;;1.55;;
41115;SDS011;26861;51.824;4.682;2023-03-01T09:21:05;2.42;;;1.50;;
41115;SDS011;26861;51.824;4.682;2023-03-01T09:23:37;2.50;;;1.33;;
41115;SDS011;26861;51.824;4.682;2023-03-01T09:26:05;1.63;;;0.95;;
41115;SDS011;26861;51.824;4.682;2023-03-01T09:28:32;1.33;;;1.00;;
41115;SDS011;26861;51.824;4.682;2023-03-01T09:30:58;1.20;;;1.10;;
41115;SDS011;26861;51.824;4.682;2023-03-01T09:33:25;1.60;;;1.30;;
41115;SDS011;26861;51.824;4.682;2023-03-01T09:36:01;0.90;;;0.90;;
41115;SDS011;26861;51.824;4.682;2023-03-01T09:38:28;1.00;;;0.90;;
41115;SDS011;26861;51.824;4.682;2023-03-01T09:40:54;1.20;;;0.80;;
41115;SDS011;26861;51.824;4.682;2023-03-01T09:45:55;2.90;;;1.00;;
41115;SDS011;26861;51.824;4.682;2023-03-01T09:48:26;1.13;;;0.90;;
41115;SDS011;26861;51.824;4.682;2023-03-01T09:50:53;1.20;;;0.98;;
41115;SDS011;26861;51.824;4.682;2023-03-01T09:53:20;1.80;;;1.10;;
41115;SDS011;26861;51.824;4.682;2023-03-01T10:01:29;1.05;;;0.95;;
41115;SDS011;26861;51.824;4.682;2023-03-01T10:09:39;1.35;;;1.02;;
41115;SDS011;26861;51.824;4.682;2023-03-01T10:12:26;1.08;;;0.93;;
41115;SDS011;26861;51.824;4.682;2023-03-01T10:15:06;0.90;;;0.70;;
41115;SDS011;26861;51.824;4.682;2023-03-01T10:17:56;2.17;;;0.90;;
41115;SDS011;26861;51.824;4.682;2023-03-01T10:23:24;1.10;;;1.00;;
41115;SDS011;26861;51.824;4.682;2023-03-01T10:28:41;1.27;;;0.70;;
41115;SDS011;26861;51.824;4.682;2023-03-01T10:31:12;1.20;;;0.90;;
41115;SDS011;26861;51.824;4.682;2023-03-01T10:33:43;0.98;;;0.70;;
41115;SDS011;26861;51.824;4.682;2023-03-01T10:36:09;1.10;;;0.85;;
41115;SDS011;26861;51.824;4.682;2023-03-01T10:38:52;1.98;;;1.05;;
41115;SDS011;26861;51.824;4.682;2023-03-01T10:41:22;1.20;;;1.00;;
41115;SDS011;26861;51.824;4.682;2023-03-01T10:43:51;1.10;;;0.88;;
41115;SDS011;26861;51.824;4.682;2023-03-01T10:49:07;0.98;;;0.98;;
41115;SDS011;26861;51.824;4.682;2023-03-01T10:51:42;0.93;;;0.82;;
41115;SDS011;26861;51.824;4.682;2023-03-01T10:54:16;0.80;;;0.80;;
41115;SDS011;26861;51.824;4.682;2023-03-01T10:56:46;1.15;;;0.90;;
41115;SDS011;26861;51.824;4.682;2023-03-01T10:59:33;0.80;;;0.70;;
41115;SDS011;26861;51.824;4.682;2023-03-01T11:02:02;1.05;;;0.80;;
41115;SDS011;26861;51.824;4.682;2023-03-01T11:04:38;1.38;;;1.02;;
41115;SDS011;26861;51.824;4.682;2023-03-01T11:07:03;1.00;;;0.75;;
41115;SDS011;26861;51.824;4.682;2023-03-01T11:09:32;0.82;;;0.80;;
41115;SDS011;26861;51.824;4.682;2023-03-01T11:12:05;0.80;;;0.80;;
41115;SDS011;26861;51.824;4.682;2023-03-01T11:14:39;2.25;;;0.90;;
41115;SDS011;26861;51.824;4.682;2023-03-01T11:17:17;1.17;;;1.02;;
41115;SDS011;26861;51.824;4.682;2023-03-01T11:20:02;0.95;;;0.80;;
41115;SDS011;26861;51.824;4.682;2023-03-01T11:22:54;0.63;;;0.63;;
41115;SDS011;26861;51.824;4.682;2023-03-01T11:25:35;1.42;;;0.85;;
41115;SDS011;26861;51.824;4.682;2023-03-01T11:28:05;1.30;;;0.90;;
41115;SDS011;26861;51.824;4.682;2023-03-01T11:36:07;3.08;;;1.00;;
41115;SDS011;26861;51.824;4.682;2023-03-01T11:38:41;1.42;;;0.82;;
41115;SDS011;26861;51.824;4.682;2023-03-01T11:41:13;1.27;;;0.90;;
41115;SDS011;26861;51.824;4.682;2023-03-01T11:52:07;1.65;;;1.05;;
41115;SDS011;26861;51.824;4.682;2023-03-01T12:06:34;1.05;;;0.80;;
41115;SDS011;26861;51.824;4.682;2023-03-01T12:11:54;0.77;;;0.65;;
41115;SDS011;26861;51.824;4.682;2023-03-01T12:25:41;1.25;;;0.73;;
41115;SDS011;26861;51.824;4.682;2023-03-01T12:28:27;0.95;;;0.57;;
41115;SDS011;26861;51.824;4.682;2023-03-01T12:31:12;1.40;;;0.90;;
41115;SDS011;26861;51.824;4.682;2023-03-01T12:40:10;2.65;;;0.82;;
41115;SDS011;26861;51.824;4.682;2023-03-01T12:42:31;0.88;;;0.60;;
41115;SDS011;26861;51.824;4.682;2023-03-01T12:48:13;0.88;;;0.70;;
41115;SDS011;26861;51.824;4.682;2023-03-01T12:51:04;1.25;;;0.80;;
41115;SDS011;26861;51.824;4.682;2023-03-01T12:53:44;1.15;;;0.82;;
41115;SDS011;26861;51.824;4.682;2023-03-01T13:04:19;1.20;;;1.10;;
41115;SDS011;26861;51.824;4.682;2023-03-01T13:20:19;0.73;;;0.70;;
41115;SDS011;26861;51.824;4.682;2023-03-01T13:22:48;0.90;;;0.90;;
41115;SDS011;26861;51.824;4.682;2023-03-01T13:25:26;1.65;;;0.90;;
41115;SDS011;26861;51.824;4.682;2023-03-01T13:27:52;1.08;;;0.77;;
41115;SDS011;26861;51.824;4.682;2023-03-01T13:30:57;1.20;;;0.68;;
41115;SDS011;26861;51.824;4.682;2023-03-01T13:35:56;0.98;;;0.80;;
41115;SDS011;26861;51.824;4.682;2023-03-01T13:38:36;0.88;;;0.60;;
41115;SDS011;26861;51.824;4.682;2023-03-01T13:41:13;0.77;;;0.73;;
41115;SDS011;26861;51.824;4.682;2023-03-01T13:43:41;0.85;;;0.85;;
41115;SDS011;26861;51.824;4.682;2023-03-01T13:46:09;0.63;;;0.60;;
41115;SDS011;26861;51.824;4.682;2023-03-01T13:48:37;0.80;;;0.80;;
41115;SDS011;26861;51.824;4.682;2023-03-01T13:51:05;0.80;;;0.60;;
41115;SDS011;26861;51.824;4.682;2023-03-01T13:53:35;0.70;;;0.68;;
41115;SDS011;26861;51.824;4.682;2023-03-01T13:56:09;1.38;;;1.00;;
41115;SDS011;26861;51.824;4.682;2023-03-01T13:58:47;0.65;;;0.40;;
41115;SDS011;26861;51.824;4.682;2023-03-01T14:01:28;0.85;;;0.75;;
41115;SDS011;26861;51.824;4.682;2023-03-01T14:03:59;1.25;;;0.88;;
41115;SDS011;26861;51.824;4.682;2023-03-01T14:06:27;2.40;;;0.75;;
41115;SDS011;26861;51.824;4.682;2023-03-01T14:09:08;1.20;;;0.65;;
41115;SDS011;26861;51.824;4.682;2023-03-01T14:17:37;1.17;;;0.88;;
41115;SDS011;26861;51.824;4.682;2023-03-01T14:20:16;0.85;;;0.68;;
41115;SDS011;26861;51.824;4.682;2023-03-01T14:22:45;1.15;;;0.77;;
41115;SDS011;26861;51.824;4.682;2023-03-01T14:27:51;0.80;;;0.80;;
41115;SDS011;26861;51.824;4.682;2023-03-01T14:30:36;1.50;;;1.17;;
41115;SDS011;26861;51.824;4.682;2023-03-01T14:33:05;1.52;;;0.98;;
41115;SDS011;26861;51.824;4.682;2023-03-01T14:35:42;0.80;;;0.50;;
41115;SDS011;26861;51.824;4.682;2023-03-01T14:38:20;1.52;;;0.85;;
41115;SDS011;26861;51.824;4.682;2023-03-01T14:43:44;0.82;;;0.75;;
41115;SDS011;26861;51.824;4.682;2023-03-01T14:46:20;0.95;;;0.80;;
41115;SDS011;26861;51.824;4.682;2023-03-01T14:48:52;1.23;;;1.13;;
41115;SDS011;26861;51.824;4.682;2023-03-01T14:51:21;0.80;;;0.80;;
41115;SDS011;26861;51.824;4.682;2023-03-01T14:53:47;1.17;;;0.80;;
41115;SDS011;26861;51.824;4.682;2023-03-01T14:56:15;0.90;;;0.73;;
41115;SDS011;26861;51.824;4.682;2023-03-01T14:58:44;0.47;;;0.47;;
41115;SDS011;26861;51.824;4.682;2023-03-01T15:01:13;0.90;;;0.70;;
41115;SDS011;26861;51.824;4.682;2023-03-01T15:03:42;0.88;;;0.88;;
41115;SDS011;26861;51.824;4.682;2023-03-01T15:06:10;1.05;;;0.52;;
41115;SDS011;26861;51.824;4.682;2023-03-01T15:08:43;0.95;;;0.60;;
41115;SDS011;26861;51.824;4.682;2023-03-01T15:11:30;0.85;;;0.68;;
41115;SDS011;26861;51.824;4.682;2023-03-01T15:13:58;1.42;;;1.33;;
41115;SDS011;26861;51.824;4.682;2023-03-01T15:16:25;1.15;;;1.00;;
41115;SDS011;26861;51.824;4.682;2023-03-01T15:18:52;0.80;;;0.80;;
41115;SDS011;26861;51.824;4.682;2023-03-01T15:21:24;0.95;;;0.90;;
41115;SDS011;26861;51.824;4.682;2023-03-01T15:24:04;1.10;;;0.93;;
41115;SDS011;26861;51.824;4.682;2023-03-01T15:26:40;2.03;;;0.70;;
41115;SDS011;26861;51.824;4.682;2023-03-01T15:29:11;1.00;;;0.90;;
41115;SDS011;26861;51.824;4.682;2023-03-01T15:31:52;0.70;;;0.70;;
41115;SDS011;26861;51.824;4.682;2023-03-01T15:34:24;1.15;;;1.10;;
41115;SDS011;26861;51.824;4.682;2023-03-01T15:36:56;0.80;;;0.80;;
41115;SDS011;26861;51.824;4.682;2023-03-01T15:39:32;0.75;;;0.75;;
41115;SDS011;26861;51.824;4.682;2023-03-01T15:44:31;0.70;;;0.63;;
41115;SDS011;26861;51.824;4.682;2023-03-01T15:46:59;0.80;;;0.68;;
41115;SDS011;26861;51.824;4.682;2023-03-01T15:49:42;1.35;;;0.90;;
41115;SDS011;26861;51.824;4.682;2023-03-01T15:52:13;0.85;;;0.85;;
41115;SDS011;26861;51.824;4.682;2023-03-01T15:54:53;1.25;;;0.80;;
41115;SDS011;26861;51.824;4.682;2023-03-01T15:57:26;2.13;;;0.70;;
41115;SDS011;26861;51.824;4.682;2023-03-01T15:59:52;0.90;;;0.80;;
41115;SDS011;26861;51.824;4.682;2023-03-01T16:02:18;0.90;;;0.80;;
41115;SDS011;26861;51.824;4.682;2023-03-01T16:04:46;0.73;;;0.73;;
41115;SDS011;26861;51.824;4.682;2023-03-01T16:07:12;1.35;;;1.10;;
41115;SDS011;26861;51.824;4.682;2023-03-01T16:09:37;1.55;;;1.30;;
41115;SDS011;26861;51.824;4.682;2023-03-01T16:12:03;1.42;;;1.30;;
41115;SDS011;26861;51.824;4.682;2023-03-01T16:14:29;1.08;;;1.00;;
41115;SDS011;26861;51.824;4.682;2023-03-01T16:16:55;1.10;;;1.00;;
41115;SDS011;26861;51.824;4.682;2023-03-01T16:19:21;1.20;;;1.10;;
41115;SDS011;26861;51.824;4.682;2023-03-01T16:21:46;1.17;;;1.00;;
41115;SDS011;26861;51.824;4.682;2023-03-01T16:24:13;1.00;;;0.85;;
41115;SDS011;26861;51.824;4.682;2023-03-01T16:26:39;2.78;;;1.15;;
41115;SDS011;26861;51.824;4.682;2023-03-01T16:29:05;0.77;;;0.73;;
41115;SDS011;26861;51.824;4.682;2023-03-01T16:31:31;1.15;;;1.05;;
41115;SDS011;26861;51.824;4.682;2023-03-01T16:33:57;1.45;;;0.90;;
41115;SDS011;26861;51.824;4.682;2023-03-01T16:36:25;2.45;;;1.00;;
41115;SDS011;26861;51.824;4.682;2023-03-01T16:38:53;2.65;;;1.60;;
41115;SDS011;26861;51.824;4.682;2023-03-01T16:41:21;1.95;;;1.05;;
41115;SDS011;26861;51.824;4.682;2023-03-01T16:43:48;2.05;;;0.90;;
41115;SDS011;26861;51.824;4.682;2023-03-01T16:46:15;3.80;;;1.13;;
41115;SDS011;26861;51.824;4.682;2023-03-01T16:48:46;1.33;;;0.98;;
41115;SDS011;26861;51.824;4.682;2023-03-01T16:51:12;3.40;;;1.63;;
41115;SDS011;26861;51.824;4.682;2023-03-01T16:53:39;2.45;;;1.10;;
41115;SDS011;26861;51.824;4.682;2023-03-01T16:56:06;1.05;;;0.95;;
41115;SDS011;26861;51.824;4.682;2023-03-01T16:58:34;3.38;;;0.90;;
41115;SDS011;26861;51.824;4.682;2023-03-01T17:01:05;1.27;;;0.88;;
41115;SDS011;26861;51.824;4.682;2023-03-01T17:03:31;1.88;;;1.00;;